Saturday, February 06, 2016
23:24 UTC
  |  Log In   |  Register Free
Airport Search:

Akron-Canton Regional Airport
(KCAK)

FAA data valid effective Dec 10 2015 - Feb 4 2016 (unless otherwise noted).

 
 
 
 
 
 
 
 
 
 
 
 
 
 
Current Aviation Weather for KCAK

Weather Summary


The most recent METAR observation for CAK was updated at: 12:51 UTC
METAR for KCAK is not available. Closest METAR is for KAKR
KCAK  (most recent observation was updatred at 62:05 UTC)
062051Z 22010KT 9SM FEW200 04/M07 A3019 RMK AO2 SLP235 T00441067 56019 $

KAKR  (7.4 nm SE)   (most recent observation was updated at 62:05 UTC)
062054Z AUTO 24009KT 10SM CLR 05/M07 A3019 RMK AO2 SLP231 T00501067 56017

KPOV  (19.7 nm SW)   (most recent observation was updated at 62:13 UTC)
062139Z AUTO 22006KT 10SM CLR 04/M09 A3019 RMK AO2 T00351090

TAF for KCAK is not available.
KCAK
AMD 061857Z 0619/0718 25009KT P6SM FEW035 SCT250 FM070500 20005KT P6SM SCT025 BKN060

KCLE  (35.0 nm SE)   (most recent observation was updatred at 62:04 UTC)
AMD 062041Z 0621/0724 23009KT P6SM SCT250 FM070300 20005KT P6SM SCT025 BKN060
GlobalAir.com is loading additional information.
 Current Weather at CAK
39.0 F° (3.9 C°)

West winds at 11.5 mph
Pressure:
30.20 in
Humidity:
39%
Wind:
West at 11.5 mph
Dew Point:
16.0 F° (-8.9 C°)
Visibility:
10.00 mi
CAK NOAA Radar




Find All Airport Services Find A Hotel Find A Rental Car Find A Golf Course Find A Restaurant $100 Hamburger



Airport Weather Forecast for KCAK

Translated METAR for KCAK (2051 UTC)
METAR:
KCAK 062051Z 22010KT 9SM FEW200 04/M07 A3019 RMK AO2 SLP235 T00441067 56019 $
Conditions at:
KCAK (Akron-Canton Rgnl, OH) observed 2051 UTC 06 February 2016
Temperature:
4°C (39.2°F)
Dewpoint:
-7°C (19.4°F) [RH = 44.6]
Pressure:
30.19 inches Hg (1022.4 mb)
pressure at sea level is 235 in Hg
Winds:
from the SW (220 degrees) at 11.5 mph (10 knots: 5.1 m/s)
Visibility:
9 mile(s)
Ceiling:
at least 12,000 feet AGL
Clouds:
Few Clouds at 20,000 feet AGL
Remarks:
SOME DATA ABOVE MAY BE INACCURATE!!!
"$" is an indication the sensor requires maintenance
site is automated and HAS a precipitation sensor

Translated TAF for KCAK (Akron-Canton Rgnl, OH) (1857 UTC)
TAF text:
KCAK 061857Z 0619/0718 25009KT P6SM FEW035 SCT250
Forecast period:
Saturday Feb 06 2016 19:00 UTC - Sunday Feb 07 2016 18:00 UTC
Forecast type:
FROM: standard forecast or significant change
Winds:
from the WSW (250 degrees) at 10.4 mph (9 knots: 4.6 m/s)
Visibility:
6 or more mile(s) (9.7+ km)
Ceiling:
at least 12,000 feet AGL
Clouds:
Few Clouds at 3,500 feet AGL
Scattered Clouds at 25,000 feet AGL
Weather:
no significant weather observed at this time
TAF text:
FM070500 20005KT P6SM SCT025 BKN060
Forecast period:
Sunday Feb 07 2016 05:00 UTC - Sunday Feb 07 2016 18:00 UTC
Forecast type:
FROM: standard forecast or significant change
Winds:
from the SSW (200 degrees) at 5.8 mph (5 knots: 2.6 m/s)
Visibility:
6 or more mile(s) (9.7+ km)
Ceiling:
6,000 feet AGL
Clouds:
Scattered Clouds at 2,500 feet AGL
Broken Cloud Cover at 6,000 feet AGL
Weather:
no significant weather observed at this time
FBO's on the Field
FBO Company Facility Photos Services Transportation Aviation Fuel Prices: Prices include tax
Catering Weather Repair Courtesy Rental Type 100LL JetA JetA+ MOGAS 8087
 
Avflight Akron-Canton

Currently rated 4.8 by 1 person
FS:Avfuel
Last Updated: Jan-08
Login to update fuel prices
SS:
Contact Avflight Akron-CantonMore FBO Information
 
McKinley Air, Inc.

Currently rated 4.7 by 6 people
FS:Phillips 66
Last Updated: Jan-20
Login to update fuel prices
SS:
Contact McKinley Air, Inc.More FBO Information
 
Add another FBO Facility Photos Catering Weather Repair Courtesy Rental Type 100LL JetA JetA+ MOGAS 8087
Services Transportation Aviation Fuel Prices: Prices include tax


model-print
model-print
model-print
model-print